TimeAST,TemperatureF,Dew PointF,Humidity,Sea Level PressureIn,VisibilityMPH,Wind Direction,Wind SpeedMPH,Gust SpeedMPH,PrecipitationIn,Events,Conditions,WindDirDegrees,DateUTC
12:00 AM,82.4,77.0,84,29.86,-9999.0,North,-9999.0,-,N/A,,Unknown,0,2012-10-07 04:00:00
1:00 AM,82.4,77.0,84,29.86,-9999.0,North,-9999.0,-,N/A,,Unknown,0,2012-10-07 05:00:00
2:00 AM,73.4,71.6,94,29.86,-9999.0,North,-9999.0,-,N/A,Rain,Heavy Rain,0,2012-10-07 06:00:00
6:00 AM,77.0,77.0,100,29.83,-9999.0,North,-9999.0,-,N/A,,Unknown,0,2012-10-07 10:00:00
7:00 AM,78.8,77.0,94,29.86,-9999.0,ESE,11.5,-,N/A,,Unknown,110,2012-10-07 11:00:00
8:00 AM,80.6,78.8,94,29.86,-9999.0,ESE,11.5,-,N/A,,Unknown,110,2012-10-07 12:00:00
9:00 AM,82.4,78.8,89,29.89,-9999.0,ESE,11.5,-,N/A,,Unknown,110,2012-10-07 13:00:00
10:00 AM,86.0,78.8,79,29.92,6.2,East,100.1,-,N/A,,Scattered Clouds,100,2012-10-07 14:00:00
12:00 PM,87.8,78.8,75,29.89,6.2,ESE,12.7,-,N/A,,Partly Cloudy,120,2012-10-07 16:00:00
2:00 PM,88,78,66,29.86,19,East,12.7,,,,Partly Cloudy,100,2012-10-07 18:00:00
2:00 PM,87.8,77.0,70,29.83,6.2,East,12.7,-,N/A,,Scattered Clouds,100,2012-10-07 18:00:00
3:00 PM,87.8,78.8,75,29.83,6.2,East,11.5,-,N/A,,Scattered Clouds,90,2012-10-07 19:00:00
4:00 PM,86.0,77.0,74,29.83,6.2,East,12.7,-,N/A,,Scattered Clouds,90,2012-10-07 20:00:00
6:00 PM,84.2,77.0,79,29.83,-9999.0,North,-9999.0,-,N/A,,Unknown,0,2012-10-07 22:00:00
7:00 PM,82.4,77.0,84,29.86,6.2,East,9.2,-,N/A,,Scattered Clouds,100,2012-10-07 23:00:00
8:00 PM,83,78,79,,19,ESE,11.5,,,,Clear,110,2012-10-08 00:00:00
8:00 PM,82.4,77.0,84,29.86,-9999.0,North,-9999.0,-,N/A,,Unknown,0,2012-10-08 00:00:00
9:00 PM,82.4,77.0,84,29.89,-9999.0,North,-9999.0,-,N/A,,Unknown,0,2012-10-08 01:00:00
10:00 PM,82.4,77.0,84,29.92,-9999.0,ESE,11.5,-,N/A,,Unknown,110,2012-10-08 02:00:00
11:00 PM,82,78,84,,6,ESE,11.5,,,,Clear,110,2012-10-08 03:00:00
11:00 PM,82.4,78.8,89,29.92,-9999.0,ESE,11.5,-,N/A,,Unknown,110,2012-10-08 03:00:00